sensor_id;sensor_type;location;lat;lon;timestamp;pressure;altitude;pressure_sealevel;temperature;humidity
50650;BME280;36621;60.058;30.346;2023-01-30T00:05:51;98827.88;;;2.84;65.24
50650;BME280;36621;60.058;30.346;2023-01-30T00:13:24;98796.06;;;2.81;65.27
50650;BME280;36621;60.058;30.346;2023-01-30T00:20:56;98760.22;;;2.75;66.03
50650;BME280;36621;60.058;30.346;2023-01-30T00:28:29;98748.38;;;2.66;67.02
50650;BME280;36621;60.058;30.346;2023-01-30T00:36:01;98679.13;;;2.31;67.60
50650;BME280;36621;60.058;30.346;2023-01-30T00:43:34;98676.97;;;2.28;68.89
50650;BME280;36621;60.058;30.346;2023-01-30T00:51:24;98666.22;;;2.33;69.47
50650;BME280;36621;60.058;30.346;2023-01-30T00:58:59;98633.63;;;2.24;69.89
50650;BME280;36621;60.058;30.346;2023-01-30T01:06:31;98622.56;;;2.31;70.57
50650;BME280;36621;60.058;30.346;2023-01-30T01:14:04;98577.84;;;2.30;70.53
50650;BME280;36621;60.058;30.346;2023-01-30T01:21:37;98585.41;;;2.33;70.32
50650;BME280;36621;60.058;30.346;2023-01-30T01:29:11;98563.88;;;2.28;71.25
50650;BME280;36621;60.058;30.346;2023-01-30T01:36:43;98534.78;;;2.19;71.19
50650;BME280;36621;60.058;30.346;2023-01-30T01:44:16;98519.16;;;2.26;71.51
50650;BME280;36621;60.058;30.346;2023-01-30T01:51:52;98489.00;;;2.30;71.64
50650;BME280;36621;60.058;30.346;2023-01-30T01:59:30;98456.16;;;2.28;71.80
50650;BME280;36621;60.058;30.346;2023-01-30T02:07:03;98425.47;;;2.23;70.89
50650;BME280;36621;60.058;30.346;2023-01-30T02:14:37;98415.75;;;2.28;71.94
50650;BME280;36621;60.058;30.346;2023-01-30T02:30:55;98355.13;;;2.35;72.48
50650;BME280;36621;60.058;30.346;2023-01-30T02:38:40;98305.44;;;2.12;72.60
50650;BME280;36621;60.058;30.346;2023-01-30T02:46:22;98298.66;;;2.25;72.73
50650;BME280;36621;60.058;30.346;2023-01-30T02:53:55;98247.28;;;2.16;72.45
50650;BME280;36621;60.058;30.346;2023-01-30T03:01:50;98236.63;;;2.40;73.17
50650;BME280;36621;60.058;30.346;2023-01-30T03:09:33;98218.22;;;2.13;73.38
50650;BME280;36621;60.058;30.346;2023-01-30T03:17:10;98198.81;;;2.16;73.57
50650;BME280;36621;60.058;30.346;2023-01-30T03:24:43;98177.56;;;2.15;73.39
50650;BME280;36621;60.058;30.346;2023-01-30T03:32:16;98161.69;;;2.13;73.60
50650;BME280;36621;60.058;30.346;2023-01-30T03:39:48;98143.19;;;2.01;73.84
50650;BME280;36621;60.058;30.346;2023-01-30T03:47:21;98121.28;;;2.18;73.97
50650;BME280;36621;60.058;30.346;2023-01-30T03:54:55;98092.78;;;2.12;73.87
50650;BME280;36621;60.058;30.346;2023-01-30T04:02:28;98059.41;;;2.13;73.19
50650;BME280;36621;60.058;30.346;2023-01-30T04:10:03;98055.16;;;2.07;74.53
50650;BME280;36621;60.058;30.346;2023-01-30T04:17:36;98032.38;;;2.23;74.45
50650;BME280;36621;60.058;30.346;2023-01-30T04:25:34;98012.22;;;2.21;74.25
50650;BME280;36621;60.058;30.346;2023-01-30T04:33:12;97904.66;;;1.86;73.97
50650;BME280;36621;60.058;30.346;2023-01-30T04:40:47;97936.53;;;2.22;74.00
50650;BME280;36621;60.058;30.346;2023-01-30T04:48:21;97916.13;;;2.21;74.05
50650;BME280;36621;60.058;30.346;2023-01-30T04:55:54;97905.81;;;2.29;74.15
50650;BME280;36621;60.058;30.346;2023-01-30T05:03:27;97891.19;;;2.35;74.89
50650;BME280;36621;60.058;30.346;2023-01-30T05:10:59;97887.69;;;2.34;74.68
50650;BME280;36621;60.058;30.346;2023-01-30T05:18:32;97873.22;;;2.49;74.32
50650;BME280;36621;60.058;30.346;2023-01-30T05:26:05;97866.53;;;2.47;73.95
50650;BME280;36621;60.058;30.346;2023-01-30T05:33:38;97758.81;;;2.08;73.96
50650;BME280;36621;60.058;30.346;2023-01-30T05:41:11;97833.75;;;2.58;73.49
50650;BME280;36621;60.058;30.346;2023-01-30T05:48:44;97807.34;;;2.60;74.16
50650;BME280;36621;60.058;30.346;2023-01-30T05:56:17;97758.66;;;2.38;74.12
50650;BME280;36621;60.058;30.346;2023-01-30T06:03:53;97792.41;;;2.68;74.19
50650;BME280;36621;60.058;30.346;2023-01-30T06:11:25;97745.56;;;2.50;74.38
50650;BME280;36621;60.058;30.346;2023-01-30T06:18:58;97760.31;;;2.72;74.41
50650;BME280;36621;60.058;30.346;2023-01-30T06:26:30;97723.91;;;2.55;73.94
50650;BME280;36621;60.058;30.346;2023-01-30T06:34:03;97692.50;;;2.51;74.48
50650;BME280;36621;60.058;30.346;2023-01-30T06:41:35;97700.41;;;2.61;74.50
50650;BME280;36621;60.058;30.346;2023-01-30T06:49:08;97698.56;;;2.75;74.75
50650;BME280;36621;60.058;30.346;2023-01-30T06:56:40;97681.72;;;2.84;74.85
50650;BME280;36621;60.058;30.346;2023-01-30T07:04:12;97584.34;;;2.43;74.37
50650;BME280;36621;60.058;30.346;2023-01-30T07:11:44;97666.66;;;2.97;74.26
50650;BME280;36621;60.058;30.346;2023-01-30T07:19:18;97652.50;;;3.05;74.57
50650;BME280;36621;60.058;30.346;2023-01-30T07:26:50;97655.09;;;3.10;73.82
50650;BME280;36621;60.058;30.346;2023-01-30T07:34:22;97646.72;;;2.98;74.38
50650;BME280;36621;60.058;30.346;2023-01-30T07:41:54;97630.44;;;3.03;74.67
50650;BME280;36621;60.058;30.346;2023-01-30T07:49:28;97613.88;;;3.09;74.72
50650;BME280;36621;60.058;30.346;2023-01-30T07:57:01;97592.09;;;3.06;73.93
50650;BME280;36621;60.058;30.346;2023-01-30T08:04:33;97590.00;;;3.03;74.00
50650;BME280;36621;60.058;30.346;2023-01-30T08:12:05;97576.72;;;3.06;74.34
50650;BME280;36621;60.058;30.346;2023-01-30T08:19:38;97587.50;;;3.20;74.50
50650;BME280;36621;60.058;30.346;2023-01-30T08:27:10;97573.00;;;3.30;74.60
50650;BME280;36621;60.058;30.346;2023-01-30T08:34:42;97567.38;;;3.40;74.50
50650;BME280;36621;60.058;30.346;2023-01-30T08:42:14;97540.66;;;3.30;74.57
50650;BME280;36621;60.058;30.346;2023-01-30T08:49:46;97548.81;;;3.39;73.48
50650;BME280;36621;60.058;30.346;2023-01-30T08:57:18;97522.47;;;3.36;73.66
50650;BME280;36621;60.058;30.346;2023-01-30T09:04:51;97479.78;;;3.15;73.81
50650;BME280;36621;60.058;30.346;2023-01-30T09:12:24;97517.44;;;3.43;74.02
50650;BME280;36621;60.058;30.346;2023-01-30T09:19:56;97508.25;;;3.44;73.34
50650;BME280;36621;60.058;30.346;2023-01-30T09:27:28;97505.25;;;3.45;73.90
50650;BME280;36621;60.058;30.346;2023-01-30T09:35:01;97495.25;;;3.46;73.67
50650;BME280;36621;60.058;30.346;2023-01-30T09:42:53;97471.47;;;3.48;73.61
50650;BME280;36621;60.058;30.346;2023-01-30T09:50:45;97474.09;;;3.62;74.96
50650;BME280;36621;60.058;30.346;2023-01-30T09:58:21;97459.56;;;3.49;73.82
50650;BME280;36621;60.058;30.346;2023-01-30T10:05:56;97467.66;;;3.49;73.95
50650;BME280;36621;60.058;30.346;2023-01-30T10:13:40;97433.31;;;3.41;74.08
50650;BME280;36621;60.058;30.346;2023-01-30T10:21:25;97397.84;;;3.25;74.38
50650;BME280;36621;60.058;30.346;2023-01-30T10:29:03;97425.78;;;3.29;73.88
50650;BME280;36621;60.058;30.346;2023-01-30T10:36:40;97407.22;;;3.27;74.18
50650;BME280;36621;60.058;30.346;2023-01-30T10:44:14;97416.97;;;3.37;73.21
50650;BME280;36621;60.058;30.346;2023-01-30T10:51:54;97401.84;;;3.50;74.68
50650;BME280;36621;60.058;30.346;2023-01-30T10:59:42;97391.84;;;3.51;74.30
50650;BME280;36621;60.058;30.346;2023-01-30T11:07:19;97396.38;;;3.41;73.83
50650;BME280;36621;60.058;30.346;2023-01-30T11:14:54;97382.03;;;3.32;73.56
50650;BME280;36621;60.058;30.346;2023-01-30T11:22:27;97374.25;;;3.30;73.69
50650;BME280;36621;60.058;30.346;2023-01-30T11:30:05;97366.84;;;3.36;74.34
50650;BME280;36621;60.058;30.346;2023-01-30T11:37:40;97371.69;;;3.25;74.02
50650;BME280;36621;60.058;30.346;2023-01-30T11:45:21;97323.16;;;3.03;74.40
50650;BME280;36621;60.058;30.346;2023-01-30T11:53:00;97350.75;;;3.22;74.17
50650;BME280;36621;60.058;30.346;2023-01-30T12:00:37;97364.69;;;3.24;74.18
50650;BME280;36621;60.058;30.346;2023-01-30T12:08:21;97353.00;;;3.06;73.91
50650;BME280;36621;60.058;30.346;2023-01-30T12:16:01;97241.28;;;2.45;74.69
50650;BME280;36621;60.058;30.346;2023-01-30T12:23:40;97362.72;;;3.16;74.29
50650;BME280;36621;60.058;30.346;2023-01-30T12:31:19;97361.53;;;3.22;74.01
50650;BME280;36621;60.058;30.346;2023-01-30T12:38:59;97349.09;;;3.12;74.94
50650;BME280;36621;60.058;30.346;2023-01-30T12:46:47;97367.41;;;3.24;74.76
50650;BME280;36621;60.058;30.346;2023-01-30T12:54:36;97368.59;;;3.41;74.58
50650;BME280;36621;60.058;30.346;2023-01-30T13:02:24;97362.31;;;3.23;75.01
50650;BME280;36621;60.058;30.346;2023-01-30T13:10:07;97382.22;;;3.36;74.66
50650;BME280;36621;60.058;30.346;2023-01-30T13:17:53;97400.00;;;3.37;74.43
50650;BME280;36621;60.058;30.346;2023-01-30T13:25:35;97405.16;;;3.47;74.74
50650;BME280;36621;60.058;30.346;2023-01-30T13:33:11;97409.88;;;3.41;74.20
50650;BME280;36621;60.058;30.346;2023-01-30T13:40:47;97404.16;;;3.43;74.20
50650;BME280;36621;60.058;30.346;2023-01-30T13:48:36;97420.09;;;3.53;74.97
50650;BME280;36621;60.058;30.346;2023-01-30T13:56:17;97438.31;;;3.47;74.31
50650;BME280;36621;60.058;30.346;2023-01-30T14:03:52;97429.44;;;3.47;73.88
50650;BME280;36621;60.058;30.346;2023-01-30T14:11:31;97438.72;;;3.63;74.60
50650;BME280;36621;60.058;30.346;2023-01-30T14:19:28;97444.00;;;3.69;74.47
50650;BME280;36621;60.058;30.346;2023-01-30T14:27:20;97435.13;;;3.45;74.67
50650;BME280;36621;60.058;30.346;2023-01-30T14:51:29;97443.81;;;3.65;74.83
50650;BME280;36621;60.058;30.346;2023-01-30T14:59:07;97434.09;;;3.33;74.37
50650;BME280;36621;60.058;30.346;2023-01-30T15:06:41;97465.47;;;3.51;74.22
50650;BME280;36621;60.058;30.346;2023-01-30T15:14:15;97425.84;;;3.38;74.15
50650;BME280;36621;60.058;30.346;2023-01-30T15:21:59;97448.22;;;3.61;74.40
50650;BME280;36621;60.058;30.346;2023-01-30T15:29:58;97420.09;;;3.53;74.95
50650;BME280;36621;60.058;30.346;2023-01-30T15:37:37;97449.66;;;3.58;73.85
50650;BME280;36621;60.058;30.346;2023-01-30T15:45:12;97421.22;;;3.29;74.29
50650;BME280;36621;60.058;30.346;2023-01-30T15:52:46;97438.06;;;3.35;74.13
50650;BME280;36621;60.058;30.346;2023-01-30T16:00:26;97424.81;;;3.25;74.34
50650;BME280;36621;60.058;30.346;2023-01-30T16:08:08;97445.97;;;3.32;74.54
50650;BME280;36621;60.058;30.346;2023-01-30T16:15:46;97432.50;;;3.18;74.50
50650;BME280;36621;60.058;30.346;2023-01-30T16:23:23;97436.09;;;3.27;74.01
50650;BME280;36621;60.058;30.346;2023-01-30T16:30:57;97445.84;;;3.37;73.88
50650;BME280;36621;60.058;30.346;2023-01-30T16:38:37;97441.31;;;3.46;74.58
50650;BME280;36621;60.058;30.346;2023-01-30T16:46:44;97466.59;;;3.73;74.07
50650;BME280;36621;60.058;30.346;2023-01-30T16:54:21;97480.50;;;3.66;73.57
50650;BME280;36621;60.058;30.346;2023-01-30T17:01:54;97441.88;;;3.57;73.41
50650;BME280;36621;60.058;30.346;2023-01-30T17:09:37;97457.81;;;3.67;73.41
50650;BME280;36621;60.058;30.346;2023-01-30T17:17:12;97472.50;;;3.61;72.18
50650;BME280;36621;60.058;30.346;2023-01-30T17:24:45;97474.09;;;3.62;72.59
50650;BME280;36621;60.058;30.346;2023-01-30T17:32:17;97459.09;;;3.47;72.26
50650;BME280;36621;60.058;30.346;2023-01-30T17:39:49;97425.38;;;3.36;72.64
50650;BME280;36621;60.058;30.346;2023-01-30T17:47:21;97479.56;;;3.71;72.08
50650;BME280;36621;60.058;30.346;2023-01-30T17:54:54;97479.69;;;3.88;72.98
50650;BME280;36621;60.058;30.346;2023-01-30T18:02:26;97466.13;;;3.79;71.72
50650;BME280;36621;60.058;30.346;2023-01-30T18:09:59;97472.47;;;3.75;71.57
50650;BME280;36621;60.058;30.346;2023-01-30T18:17:31;97468.97;;;3.74;72.13
50650;BME280;36621;60.058;30.346;2023-01-30T18:25:05;97487.72;;;3.79;71.51
50650;BME280;36621;60.058;30.346;2023-01-30T18:32:37;97463.75;;;3.78;71.64
50650;BME280;36621;60.058;30.346;2023-01-30T18:40:11;97497.63;;;3.93;72.59
50650;BME280;36621;60.058;30.346;2023-01-30T18:47:45;97501.28;;;3.88;71.40
50650;BME280;36621;60.058;30.346;2023-01-30T18:55:17;97487.09;;;3.82;71.81
50650;BME280;36621;60.058;30.346;2023-01-30T19:02:51;97502.25;;;3.92;71.21
50650;BME280;36621;60.058;30.346;2023-01-30T19:10:23;97503.66;;;3.90;71.27
50650;BME280;36621;60.058;30.346;2023-01-30T19:17:56;97513.06;;;3.92;70.66
50650;BME280;36621;60.058;30.346;2023-01-30T19:25:28;97525.81;;;4.00;71.10
50650;BME280;36621;60.058;30.346;2023-01-30T19:33:02;97519.06;;;3.89;71.46
50650;BME280;36621;60.058;30.346;2023-01-30T19:40:39;97516.47;;;3.84;71.78
50650;BME280;36621;60.058;30.346;2023-01-30T19:48:10;97502.00;;;3.57;70.70
50650;BME280;36621;60.058;30.346;2023-01-30T19:55:48;97521.28;;;3.87;71.75
50650;BME280;36621;60.058;30.346;2023-01-30T20:03:21;97526.59;;;3.78;71.31
50650;BME280;36621;60.058;30.346;2023-01-30T20:11:00;97518.94;;;3.72;71.51
50650;BME280;36621;60.058;30.346;2023-01-30T20:18:33;97505.19;;;3.59;71.03
50650;BME280;36621;60.058;30.346;2023-01-30T20:26:10;97510.97;;;3.67;71.12
50650;BME280;36621;60.058;30.346;2023-01-30T20:33:43;97533.44;;;3.76;70.98
50650;BME280;36621;60.058;30.346;2023-01-30T20:41:18;97437.59;;;3.19;70.97
50650;BME280;36621;60.058;30.346;2023-01-30T20:48:51;97530.53;;;3.72;70.75
50650;BME280;36621;60.058;30.346;2023-01-30T20:56:25;97413.09;;;3.07;70.91
50650;BME280;36621;60.058;30.346;2023-01-30T21:03:58;97495.84;;;3.57;70.97
50650;BME280;36621;60.058;30.346;2023-01-30T21:11:31;97436.72;;;3.24;71.27
50650;BME280;36621;60.058;30.346;2023-01-30T21:19:06;97510.34;;;3.70;70.50
50650;BME280;36621;60.058;30.346;2023-01-30T21:26:45;97501.72;;;3.59;71.14
50650;BME280;36621;60.058;30.346;2023-01-30T21:34:20;97423.94;;;3.16;70.99
50650;BME280;36621;60.058;30.346;2023-01-30T21:41:53;97474.34;;;3.52;70.92
50650;BME280;36621;60.058;30.346;2023-01-30T21:49:44;97470.44;;;3.35;71.52
50650;BME280;36621;60.058;30.346;2023-01-30T21:57:16;97479.84;;;3.24;71.04
50650;BME280;36621;60.058;30.346;2023-01-30T22:04:48;97475.00;;;3.12;71.53
50650;BME280;36621;60.058;30.346;2023-01-30T22:12:21;97469.00;;;3.15;72.05
50650;BME280;36621;60.058;30.346;2023-01-30T22:19:53;97487.31;;;3.27;71.63
50650;BME280;36621;60.058;30.346;2023-01-30T22:27:25;97462.03;;;3.37;71.23
50650;BME280;36621;60.058;30.346;2023-01-30T22:34:57;97477.59;;;3.40;71.65
50650;BME280;36621;60.058;30.346;2023-01-30T22:42:30;97454.78;;;3.46;70.57
50650;BME280;36621;60.058;30.346;2023-01-30T22:50:02;97464.19;;;3.48;70.43
50650;BME280;36621;60.058;30.346;2023-01-30T22:57:36;97462.66;;;3.56;70.77
50650;BME280;36621;60.058;30.346;2023-01-30T23:05:08;97457.97;;;3.48;69.83
50650;BME280;36621;60.058;30.346;2023-01-30T23:12:41;97470.78;;;3.65;69.84
50650;BME280;36621;60.058;30.346;2023-01-30T23:20:31;97480.28;;;3.62;69.62
50650;BME280;36621;60.058;30.346;2023-01-30T23:28:04;97474.41;;;3.60;70.13
50650;BME280;36621;60.058;30.346;2023-01-30T23:35:36;97472.56;;;3.24;71.10
50650;BME280;36621;60.058;30.346;2023-01-30T23:43:08;97461.03;;;3.33;71.89
50650;BME280;36621;60.058;30.346;2023-01-30T23:50:40;97473.31;;;3.39;71.35
50650;BME280;36621;60.058;30.346;2023-01-30T23:58:13;97443.19;;;3.23;71.89
